EHVL  Vlieland Heliport

Add Bookmark

Vlieland, The Netherlands

Status
Operational
Latitude Longitude
53° 17' 47" N 5° 5' 8" E
53.296665 5.085833
Local (DST + 2) UTC (GMT + 1)
Sep 21, 2014 10:05 Sep 21, 2014 08:05
Sunrise-Sunset Local UTC
Begin Civil Twilight 06:47 04:47
Sunrise 07:22 05:22
Sunset 07:42 17:42
End Civil Twilight 08:17 18:17

Current Weather

METAR Observed MVFR
EHVL 210755Z AUTO 34020KT 9999 BKN028 BKN035 16/10 Q1018 BLU Sun, Sep 21, 2014 @ 07:55 UTC
(10 Minutes ago)
Marginal Visual Flight Rules
Wind Visibility Clouds Conditions
340° at 20 knots (37 kph) 10 km or more
  • Broken at 2,800' AGL
  • Broken at 3,500' AGL
  • No significant weather
Temperatures Readings Precipitation
Current Temp 16°C (61°F)
Dewpoint 10°C (50°F)
Humidity 68%
Altimeter 30.06"Hg
Sea Level Pressure 1018mb
Field Elevation 16.4'
None Recorded

Additional weather within a 92.6km radius of EHVL

Map ICAO Location
EHMG 36.5km N (347°)
EHLW 45.6km E (099°)
EHKD 46.1km S (206°)
EHMA 61.5km E (068°)
EHQE 75.4km W (236°)

24 Hour Weather History

Loading
-

24 Hour Weather Graphs

Loading
-

CheckWX.com is intended as a tool to help pilots better visualize weather data. It is not intended as a substitute for an official weather briefing obtained from a Flight Service Station. CheckWX.com does not meet the FAA requirements for an official pre-flight weather briefing. Therefore, it's important that pilots still call and obtain an official FSS pre-flight weather briefing.